Latest Weather Observations for Lake Grace

IDW60801

Issued at 12:33 pm WST Saturday 21 October 2017 (issued every 30 minutes, with the page automatically refreshed every 10 minutes)

About weather observations | Map of weather stations | Latest weather observations for WA | Other Formats
Station Details ID: 010911 Name: LAKE GRACE Lat: -33.10 Lon: 118.46 Height: 286.0 m
Data from the previous 72 hours. | See also: Recent months at Lake Grace
Date/Time
WST
Temp
°C
App
Temp
°C
Dew
Point
°C
Rel
Hum
%
Delta-T
°C
Wind Press
QNH
hPa
Press
MSL
hPa
Rain since
9am
mm
Dir  Spd
km/h
Gust
km/h
Spd
kts
Gust
kts
21/12:30pm 28.7 23.5 3.5 20 12.8 N 20 28 11 15 1022.4 1021.9 0.0
21/12:00pm 27.8 23.2 3.5 21 12.3 ENE 17 28 9 15 1022.5 1022.0 0.0
21/11:30am 26.9 23.1 4.0 23 11.6 NE 13 22 7 12 1022.5 1022.0 0.0
21/11:00am 27.0 23.0 4.7 24 11.4 ENE 15 24 8 13 1022.7 1022.3 0.0
21/10:30am 26.2 22.3 5.2 26 10.9 ENE 15 26 8 14 1023.2 1022.8 0.0
21/10:00am 24.9 22.2 7.5 33 9.3 ENE 11 19 6 10 1023.7 1023.3 0.0
21/09:30am 23.0 19.7 6.3 34 8.6 NNE 13 22 7 12 1024.1 1023.7 0.0
21/09:00am 21.7 18.3 7.5 40 7.4 NE 15 22 8 12 1024.5 1024.0 0.0
21/08:30am 19.6 16.7 8.0 47 6.1 NE 13 20 7 11 1024.6 1024.1 0.0
21/08:00am 17.6 14.3 7.9 53 5.0 NE 15 22 8 12 1024.9 1024.4 0.0
21/07:30am 15.9 12.0 8.6 62 3.8 ENE 19 26 10 14 1025.1 1024.6 0.0
21/07:00am 14.5 12.5 8.7 68 3.0 E 9 15 5 8 1025.0 1024.5 0.0
21/06:30am 12.9 11.3 8.6 75 2.2 ESE 7 11 4 6 1025.0 1024.5 0.0
21/06:00am 11.6 9.8 8.1 79 1.7 E 7 13 4 7 1024.7 1024.2 0.0
21/05:30am 10.9 8.8 8.3 84 1.3 SSW 9 13 5 7 1024.5 1024.0 0.0
21/05:00am 10.3 8.2 8.1 86 1.1 SSW 9 15 5 8 1024.1 1023.7 0.0
21/04:30am 10.5 8.7 8.1 85 1.2 S 7 13 4 7 1024.1 1023.7 0.0
21/04:00am 10.7 9.0 8.5 86 1.1 S 7 11 4 6 1024.5 1024.0 0.0
21/03:30am 10.8 9.2 8.6 86 1.1 S 7 11 4 6 1024.5 1024.0 0.0
21/03:00am 10.9 8.9 8.8 87 1.0 SSE 9 13 5 7 1024.5 1024.0 0.0
21/02:30am 11.0 9.1 9.1 88 1.0 SSE 9 13 5 7 1024.8 1024.3 0.0
21/02:00am 11.2 9.3 9.1 87 1.1 S 9 13 5 7 1025.0 1024.5 0.0
21/01:30am 11.5 9.7 9.4 87 1.1 SSE 9 15 5 8 1025.2 1024.7 0.0
21/01:00am 11.8 8.9 9.5 86 1.2 SE 15 20 8 11 1025.4 1024.9 0.0
21/12:30am 12.2 9.0 9.8 85 1.2 SE 17 22 9 12 1025.7 1025.3 0.0
21/12:00am 12.3 10.2 9.9 85 1.2 S 11 19 6 10 1026.2 1025.8 0.0
 
Date/Time
WST
Temp
°C
App
Temp
°C
Dew
Point
°C
Rel
Hum
%
Delta-T
°C
Wind Press
QNH
hPa
Press
MSL
hPa
Rain since
9am
mm
Dir  Spd
km/h
Gust
km/h
Spd
kts
Gust
kts
20/11:30pm 12.8 11.1 9.8 82 1.6 SSE 9 20 5 11 1026.2 1025.8 0.0
20/11:00pm 13.1 9.5 9.7 80 1.8 ESE 19 33 10 18 1026.2 1025.8 0.0
20/10:30pm 13.6 9.0 9.5 76 2.1 ESE 24 37 13 20 1026.2 1025.8 0.0
20/10:00pm 14.1 9.4 9.1 72 2.6 ESE 24 35 13 19 1026.0 1025.6 0.0
20/09:30pm 14.7 9.9 8.9 68 3.0 ESE 24 35 13 19 1026.1 1025.7 0.0
20/09:00pm 15.3 10.5 8.8 65 3.3 ESE 24 33 13 18 1026.3 1025.9 0.0
20/08:30pm 16.1 10.9 8.8 62 3.8 ESE 26 39 14 21 1026.2 1025.8 0.0
20/08:00pm 17.1 11.9 8.8 58 4.3 ESE 26 44 14 24 1026.1 1025.7 0.0
20/07:30pm 18.2 13.7 8.5 53 5.1 ESE 22 37 12 20 1025.9 1025.5 0.0
20/07:00pm 19.5 13.7 7.9 47 6.0 ESE 28 43 15 23 1025.6 1025.1 0.0
20/06:32pm 20.8 14.5 7.4 42 7.0 ESE 30 48 16 26 1025.1 1024.6 0.0
20/06:30pm 20.9 14.2 7.5 42 7.0 ESE 32 48 17 26 1025.0 1024.5 0.0
20/06:25pm 21.2 15.3 7.4 41 7.2 ESE 28 48 15 26 1024.8 1024.3 0.0
20/06:06pm 23.0 18.3 5.9 33 8.8 E 20 44 11 24 1024.6 1024.1 0.0
20/06:00pm 25.0 19.4 -2.5 16 12.2 E 17 26 9 14 1024.4 1023.9 0.0
20/05:30pm 26.1 20.4 -3.5 14 13.1 ENE 17 26 9 14 1023.8 1023.4 0.0
20/05:00pm 26.4 20.5 -5.3 12 13.5 E 17 26 9 14 1023.8 1023.4 0.0
20/04:30pm 26.4 19.6 -5.3 12 13.6 E 22 32 12 17 1023.8 1023.4 0.0
20/04:00pm 26.3 20.5 -4.3 13 13.3 ENE 17 30 9 16 1024.1 1023.7 0.0
20/03:30pm 26.8 20.6 -4.9 12 13.7 NE 19 28 10 15 1024.3 1023.8 0.0
20/03:00pm 26.5 20.4 -2.2 15 13.0 E 20 32 11 17 1024.3 1023.8 0.0
20/02:30pm 26.0 20.1 -0.9 17 12.4 ENE 20 32 11 17 1024.7 1024.2 0.0
20/02:00pm 26.0 20.3 0.6 19 12.0 ENE 20 33 11 18 1025.0 1024.5 0.0
20/01:30pm 26.1 20.5 1.4 20 11.9 E 20 32 11 17 1025.3 1024.8 0.0
20/01:00pm 25.0 19.5 1.8 22 11.1 E 20 37 11 20 1025.7 1025.3 0.0
20/12:30pm 25.2 20.4 2.6 23 11.1 ENE 17 24 9 13 1026.1 1025.7 0.0
20/12:00pm 24.5 18.8 2.6 24 10.6 ENE 22 37 12 20 1026.6 1026.2 0.0
20/11:30am 24.0 18.7 2.8 25 10.3 NE 20 30 11 16 1026.8 1026.4 0.0
20/11:00am 24.0 18.4 3.3 26 10.1 NE 22 35 12 19 1027.4 1027.0 0.0
20/10:30am 23.2 18.0 3.7 28 9.6 ENE 20 35 11 19 1027.7 1027.3 0.0
20/10:00am 22.4 18.7 6.2 35 8.3 ENE 15 24 8 13 1028.3 1027.8 0.0
20/09:30am 21.1 16.2 5.1 35 8.0 ENE 20 32 11 17 1028.7 1028.3 0.0
20/09:00am 19.6 15.5 6.4 42 6.6 NE 17 22 9 12 1029.1 1028.7 0.0
20/08:30am 17.7 13.0 5.9 46 5.9 NE 20 28 11 15 1029.1 1028.7 0.0
20/08:00am 15.8 11.2 6.3 53 4.7 ENE 20 33 11 18 1029.0 1028.6 0.0
20/07:30am 14.6 10.5 6.4 58 4.0 NE 17 28 9 15 1029.0 1028.6 0.0
20/07:00am 13.0 9.0 6.6 65 3.1 NE 17 24 9 13 1029.1 1028.7 0.0
20/06:30am 11.6 8.7 6.5 71 2.4 E 11 20 6 11 1028.9 1028.5 0.0
20/06:00am 10.1 7.9 6.4 78 1.7 S 7 11 4 6 1029.0 1028.6 0.0
20/05:30am 9.8 7.6 6.2 78 1.7 SSE 7 13 4 7 1028.7 1028.3 0.0
20/05:00am 10.0 7.4 6.2 77 1.8 SE 9 13 5 7 1028.5 1028.0 0.0
20/04:30am 10.3 7.0 6.3 76 1.9 E 13 24 7 13 1028.3 1027.8 0.0
20/04:00am 10.5 5.1 6.5 76 1.9 ENE 24 37 13 20 1027.5 1027.1 0.0
20/03:30am 10.7 4.6 6.5 75 2.0 E 28 37 15 20 1027.5 1027.1 0.0
20/03:00am 10.8 4.7 6.6 75 2.0 ENE 28 39 15 21 1027.4 1027.0 0.0
20/02:30am 10.9 4.4 6.6 75 2.1 E 30 43 16 23 1027.3 1026.9 0.0
20/02:05am 11.0 4.9 6.6 74 2.1 E 28 46 15 25 1027.4 1027.0 0.0
20/02:00am 11.0 4.5 6.6 74 2.1 E 30 43 16 23 1027.4 1027.0 0.0
20/01:30am 11.2 4.7 6.5 73 2.3 E 30 44 16 24 1027.4 1027.0 0.0
20/01:00am 11.2 5.5 6.7 74 2.1 E 26 41 14 22 1027.5 1027.1 0.0
20/12:30am 11.2 5.9 6.9 75 2.1 E 24 37 13 20 1027.7 1027.3 0.0
20/12:00am 11.3 5.7 7.0 75 2.1 E 26 44 14 24 1028.3 1027.8 0.0
 
Date/Time
WST
Temp
°C
App
Temp
°C
Dew
Point
°C
Rel
Hum
%
Delta-T
°C
Wind Press
QNH
hPa
Press
MSL
hPa
Rain since
9am
mm
Dir  Spd
km/h
Gust
km/h
Spd
kts
Gust
kts
19/11:30pm 11.5 5.5 7.0 74 2.2 E 28 43 15 23 1028.4 1027.9 0.0
19/11:00pm 11.7 6.1 7.0 73 2.3 E 26 39 14 21 1028.6 1028.1 0.0
19/10:30pm 12.0 6.3 6.9 71 2.5 ESE 26 41 14 22 1028.7 1028.3 0.0
19/10:00pm 12.5 7.2 7.0 69 2.7 ESE 24 37 13 20 1028.8 1028.4 0.0
19/09:30pm 12.9 7.3 7.1 68 2.8 ESE 26 39 14 21 1028.7 1028.3 0.0
19/09:00pm 13.4 7.7 6.7 64 3.3 ESE 26 37 14 20 1028.6 1028.1 0.0
19/08:30pm 14.0 7.8 6.1 59 3.8 ESE 28 39 15 21 1028.5 1028.0 0.0
19/08:00pm 15.0 9.1 6.0 55 4.4 ESE 26 39 14 21 1028.2 1027.7 0.0
19/07:30pm 16.2 10.7 6.1 51 5.0 ESE 24 35 13 19 1027.6 1027.2 0.0
19/07:10pm 17.0 10.7 5.9 48 5.5 ESE 28 46 15 25 1027.1 1026.7 0.0
19/07:00pm 17.7 12.2 5.9 46 5.8 SE 24 35 13 19 1026.8 1026.4 0.0
19/06:30pm 19.8 15.8 2.6 32 8.1 ESE 13 17 7 9 1026.2 1025.8 0.0
19/06:00pm 20.9 17.2 2.2 29 8.8 ESE 11 15 6 8 1026.0 1025.6 0.0
19/05:30pm 21.6 17.4 1.8 27 9.3 ESE 13 19 7 10 1025.6 1025.1 0.0
19/05:00pm 22.0 17.0 1.6 26 9.5 ESE 17 30 9 16 1025.6 1025.1 0.0
19/04:30pm 22.5 17.4 0.9 24 10.1 ESE 17 24 9 13 1025.2 1024.7 0.0
19/04:00pm 22.4 17.2 0.3 23 10.1 ESE 17 28 9 15 1025.1 1024.6 0.0
19/03:30pm 22.6 17.6 1.6 25 9.9 ESE 17 28 9 15 1025.2 1024.7 0.0
19/03:00pm 22.2 16.9 1.8 26 9.6 E 19 28 10 15 1025.3 1024.8 0.0
19/02:30pm 22.5 17.5 1.5 25 9.9 E 17 28 9 15 1025.5 1025.0 0.0
19/02:00pm 21.8 16.8 1.5 26 9.5 E 17 26 9 14 1025.9 1025.5 0.0
19/01:30pm 21.4 17.5 3.6 31 8.7 ESE 13 28 7 15 1026.2 1025.8 0.0
19/01:00pm 20.5 15.6 2.3 30 8.5 ESE 17 26 9 14 1026.6 1026.2 0.0
19/12:30pm 19.8 15.5 3.1 33 8.0 E 15 24 8 13 1027.0 1026.6 0.0
19/12:00pm 19.6 14.8 2.5 32 8.0 ENE 17 26 9 14 1027.4 1027.0 0.0
19/11:30am 18.9 15.1 3.9 37 7.2 ESE 13 20 7 11 1027.7 1027.3 0.0
19/11:00am 17.3 13.8 3.6 40 6.4 SE 11 20 6 11 1028.3 1027.8 0.0
19/10:30am 17.1 13.8 4.8 44 5.9 SSE 11 20 6 11 1028.7 1028.3 0.0
19/10:00am 16.4 13.2 5.1 47 5.4 E 11 20 6 11 1029.1 1028.7 0.0
19/09:30am 15.5 11.8 4.6 48 5.2 ESE 13 24 7 13 1029.2 1028.8 0.0
19/09:00am 14.6 10.6 4.9 52 4.6 E 15 24 8 13 1029.3 1028.9 0.0
19/08:30am 13.8 9.6 5.7 58 3.9 ESE 17 24 9 13 1029.1 1028.7 0.0
19/08:00am 13.0 10.0 5.9 62 3.4 SE 11 17 6 9 1029.0 1028.6 0.0
19/07:30am 11.3 8.5 5.2 66 2.8 SE 9 13 5 7 1028.9 1028.5 0.0
19/07:00am 10.2 9.0 6.4 77 1.8 SSE 2 7 1 4 1028.6 1028.1 0.0
19/06:30am 7.6 6.6 5.6 87 0.9 CALM 0 0 0 0 1028.1 1027.6 0.0
19/06:00am 4.9 3.4 3.2 89 0.7 CALM 0 0 0 0 1027.6 1027.2 0.0
19/05:30am 4.8 2.6 3.1 89 0.7 SE 4 6 2 3 1027.3 1026.9 0.0
19/05:00am 4.5 2.9 2.7 88 0.7 CALM 0 0 0 0 1027.0 1026.6 0.0
19/04:30am 5.0 3.5 3.0 87 0.8 CALM 0 0 0 0 1026.9 1026.5 0.0
19/04:00am 5.3 3.8 3.2 86 0.9 CALM 0 0 0 0 1026.7 1026.3 0.0
19/03:30am 5.4 3.2 3.1 85 1.0 ESE 4 6 2 3 1026.4 1026.0 0.0
19/03:00am 5.7 3.5 3.2 84 1.0 S 4 6 2 3 1026.2 1025.8 0.0
19/02:30am 6.2 4.0 3.5 83 1.2 SSW 4 7 2 4 1026.0 1025.6 0.0
19/02:00am 7.0 5.7 4.0 81 1.3 CALM 0 0 0 0 1025.9 1025.5 0.0
19/01:30am 7.3 5.2 4.1 80 1.4 SE 4 6 2 3 1025.6 1025.1 0.0
19/01:00am 7.6 5.2 4.2 79 1.5 SE 6 7 3 4 1025.5 1025.0 0.0
19/12:30am 8.2 5.6 4.4 77 1.7 SE 7 11 4 6 1025.4 1024.9 0.0
19/12:00am 8.6 5.7 4.4 75 1.9 SE 9 13 5 7 1025.2 1024.7 0.0
 
Date/Time
WST
Temp
°C
App
Temp
°C
Dew
Point
°C
Rel
Hum
%
Delta-T
°C
Wind Press
QNH
hPa
Press
MSL
hPa
Rain since
9am
mm
Dir  Spd
km/h
Gust
km/h
Spd
kts
Gust
kts
18/11:30pm 8.7 5.7 3.9 72 2.1 SE 9 13 5 7 1025.2 1024.7 0.0
18/11:00pm 9.7 6.3 4.1 68 2.5 SE 11 17 6 9 1025.0 1024.5 0.0
18/10:30pm 10.4 6.6 3.7 63 3.0 SSE 13 20 7 11 1024.8 1024.3 0.0
18/10:00pm 10.6 7.6 4.1 64 2.9 S 9 15 5 8 1024.6 1024.1 0.0
18/09:30pm 11.0 8.4 4.0 62 3.2 SSE 7 13 4 7 1024.6 1024.1 0.0
18/09:00pm 11.8 9.2 4.1 59 3.5 S 7 11 4 6 1024.4 1023.9 0.0
18/08:30pm 12.6 9.5 3.8 55 4.0 S 9 13 5 7 1024.0 1023.6 0.0
18/08:00pm 13.5 10.7 3.0 49 4.7 S 7 11 4 6 1023.5 1023.1 0.0
18/07:30pm 14.6 11.4 2.8 45 5.4 SSW 9 13 5 7 1022.9 1022.5 0.0
18/07:00pm 15.1 11.4 2.3 42 5.8 SW 11 17 6 9 1022.4 1021.9 0.0
18/06:30pm 15.5 11.4 2.0 40 6.1 SW 13 19 7 10 1021.8 1021.3 0.0
18/06:00pm 16.5 11.6 1.8 37 6.6 WSW 17 22 9 12 1021.3 1020.8 0.0
18/05:30pm 17.4 12.4 1.4 34 7.2 WSW 17 30 9 16 1020.8 1020.3 0.0
18/05:00pm 17.0 12.1 1.8 36 6.9 WSW 17 26 9 14 1020.1 1019.7 0.0
18/04:30pm 18.0 13.0 1.5 33 7.5 W 17 26 9 14 1019.5 1019.0 0.0
18/04:00pm 18.5 13.0 0.6 30 8.0 WSW 19 28 10 15 1019.2 1018.7 0.0
18/03:30pm 18.5 13.5 1.5 32 7.8 WSW 17 30 9 16 1018.9 1018.4 0.0
18/03:00pm 18.4 13.0 1.0 31 7.8 WSW 19 32 10 17 1018.8 1018.3 0.0
18/02:30pm 17.2 11.7 0.4 32 7.4 SW 19 28 10 15 1018.9 1018.4 0.0
18/02:00pm 18.6 13.2 1.2 31 7.9 W 19 32 10 17 1018.9 1018.4 0.0
18/01:30pm 18.0 12.4 1.1 32 7.6 WSW 20 33 11 18 1018.9 1018.4 0.0
18/01:00pm 17.6 11.2 0.7 32 7.5 WSW 24 37 13 20 1018.9 1018.4 0.0

Other Formats:

Comma delimited format used in spreadsheet applications
http://www.bom.gov.au/fwo/IDW60801/IDW60801.95637.axf

JavaScript Object Notation format (JSON) in row-major order
http://www.bom.gov.au/fwo/IDW60801/IDW60801.95637.json